Startpagina
METAR-TAF:

METAR-TAF

Vliegvelden :

P11-b, Nederland

Productieplatform

breedte: 52-21-36N, lengte: 3-20-30E, hoogte: 24 m

Actueel weer

Dit bericht is 31 minuten geleden gemaakt, om 07:55 UTC
Wind 19 kt uit het oostzuidoosten
Temperatuur 11°C
Vochtigheid 82%
Druk 1011 hPa
Zicht 10 km of meer

METAR: EHPG 220755Z AUTO 12019KT 9999 NSC 11/08 Q1011 W///H///

Tijdstip: 10:26 (08:26 UTC)


TAF: ontbreekt

Waarnemingen en weersverwachtingen van meer dan 4000 vliegvelden (METAR en TAF).

De beschikbare stations zijn de gele en rode punten op de kaart.

Ga met uw muis naar het station om de naam te zien.

Klik dan om waarnemingen en weersverwachtingen te zien.

kaart wijzigen: klik op de groene knoppen met een zwart kruis om in te zoomen, op de groene knop met een streepje om uit te zoomen of op de groene pijlen voor aangrenzende kaarten.


METAR-TAF: